createdAt,value
2023-01-26T00:00:12.529Z,95128.28
2023-01-26T00:02:39.459Z,95131.50
2023-01-26T00:05:06.811Z,95126.16
2023-01-26T00:07:33.646Z,95129.53
2023-01-26T00:10:00.368Z,95131.50
2023-01-26T00:12:27.236Z,95129.16
2023-01-26T00:14:54.155Z,95122.78
2023-01-26T00:17:28.045Z,95121.00
2023-01-26T00:19:56.393Z,95119.16
2023-01-26T00:22:24.264Z,95129.53
2023-01-26T00:24:50.994Z,95116.16
2023-01-26T00:27:17.830Z,95112.81
2023-01-26T00:29:44.478Z,95103.13
2023-01-26T00:32:11.195Z,95098.97
2023-01-26T00:34:39.178Z,95105.84
2023-01-26T00:37:06.088Z,95105.63
2023-01-26T00:39:32.731Z,95106.09
2023-01-26T00:42:06.942Z,95107.50
2023-01-26T00:44:35.059Z,95109.91
2023-01-26T00:47:02.175Z,95107.69
2023-01-26T00:49:28.798Z,95113.44
2023-01-26T00:51:56.842Z,95103.59
2023-01-26T00:54:23.544Z,95105.22
2023-01-26T00:56:50.205Z,95113.25
2023-01-26T00:59:16.889Z,95106.50
2023-01-26T01:01:46.433Z,95108.09
2023-01-26T01:04:13.841Z,95115.09
2023-01-26T01:06:40.768Z,95116.69
2023-01-26T01:09:08.784Z,95110.16
2023-01-26T01:11:35.772Z,95109.13
2023-01-26T01:14:02.499Z,95110.38
2023-01-26T01:16:29.314Z,95111.00
2023-01-26T01:18:57.459Z,95106.22
2023-01-26T01:21:25.352Z,95109.25
2023-01-26T01:23:53.730Z,95111.84
2023-01-26T01:26:21.819Z,95113.47
2023-01-26T01:28:48.689Z,95113.25
2023-01-26T01:31:16.803Z,95101.69
2023-01-26T01:33:44.082Z,95094.69
2023-01-26T01:36:12.606Z,95096.47
2023-01-26T01:38:39.445Z,95099.28
2023-01-26T01:41:06.509Z,95097.31
2023-01-26T01:43:35.600Z,95098.91
2023-01-26T01:46:07.006Z,95100.50
2023-01-26T01:48:38.924Z,95102.13
2023-01-26T01:51:08.383Z,95095.91
2023-01-26T01:53:39.264Z,95091.72
2023-01-26T01:56:11.185Z,95091.09
2023-01-26T01:58:42.680Z,95090.09
2023-01-26T02:01:10.530Z,95094.50
2023-01-26T02:03:38.841Z,95087.88
2023-01-26T02:06:12.242Z,95082.44
2023-01-26T02:08:41.155Z,95083.59
2023-01-26T02:11:11.594Z,95085.41
2023-01-26T02:13:41.259Z,95081.38
2023-01-26T02:16:08.372Z,95084.00
2023-01-26T02:18:35.108Z,95084.59
2023-01-26T02:21:04.494Z,95075.00
2023-01-26T02:23:42.539Z,95068.81
2023-01-26T02:26:14.179Z,95074.63
2023-01-26T02:28:42.694Z,95071.84
2023-01-26T02:31:11.167Z,95076.25
2023-01-26T02:33:38.324Z,95066.81
2023-01-26T02:36:07.362Z,95062.63
2023-01-26T02:38:41.093Z,95056.63
2023-01-26T02:41:10.457Z,95061.81
2023-01-26T02:43:39.043Z,95058.22
2023-01-26T02:46:05.817Z,95056.63
2023-01-26T02:48:55.326Z,95047.81
2023-01-26T02:51:22.900Z,95039.38
2023-01-26T02:53:49.691Z,95034.56
2023-01-26T02:56:17.226Z,95033.34
2023-01-26T02:58:45.200Z,95033.09
2023-01-26T03:01:11.932Z,95035.09
2023-01-26T03:03:46.884Z,95025.25
2023-01-26T03:06:15.209Z,95021.22
2023-01-26T03:08:42.117Z,95028.06
2023-01-26T03:11:09.862Z,95026.00
2023-01-26T03:13:37.363Z,95029.16
2023-01-26T03:16:08.865Z,95027.34
2023-01-26T03:18:55.246Z,95020.72
2023-01-26T03:21:41.160Z,95019.09
2023-01-26T03:24:30.867Z,95012.91
2023-01-26T03:27:17.992Z,95022.53
2023-01-26T03:29:45.698Z,95012.28
2023-01-26T03:32:13.792Z,95021.44
2023-01-26T03:34:42.133Z,95013.41
2023-01-26T03:37:08.884Z,95015.41
2023-01-26T03:40:02.043Z,95022.41
2023-01-26T03:42:47.724Z,95019.38
2023-01-26T03:45:33.042Z,95016.97
2023-01-26T03:48:24.667Z,95011.00
2023-01-26T03:51:09.939Z,95014.78
2023-01-26T03:53:55.827Z,95008.00
2023-01-26T03:56:24.618Z,95011.38
2023-01-26T03:58:56.545Z,95014.97
2023-01-26T04:01:28.012Z,95002.59
2023-01-26T04:04:16.976Z,95002.78
2023-01-26T04:07:06.057Z,95004.69
2023-01-26T04:09:34.173Z,95005.09
2023-01-26T04:12:01.021Z,95000.63
2023-01-26T04:14:49.873Z,95006.81
2023-01-26T04:17:39.601Z,94996.06
2023-01-26T04:20:27.608Z,94997.66
2023-01-26T04:22:54.277Z,94993.25
2023-01-26T04:25:21.991Z,94983.28
2023-01-26T04:27:49.253Z,94977.91
2023-01-26T04:30:17.825Z,94973.72
2023-01-26T04:32:46.090Z,94971.13
2023-01-26T04:35:14.618Z,94973.28
2023-01-26T04:37:42.753Z,94973.09
2023-01-26T04:40:10.961Z,94977.91
2023-01-26T04:42:38.144Z,94979.75
2023-01-26T04:45:06.440Z,94976.03
2023-01-26T04:47:34.533Z,94974.47
2023-01-26T04:50:02.218Z,94964.69
2023-01-26T04:52:30.248Z,94969.88
2023-01-26T04:54:56.888Z,94968.09
2023-01-26T04:57:24.585Z,94968.88
2023-01-26T04:59:52.019Z,94978.31
2023-01-26T05:02:20.054Z,94968.25
2023-01-26T05:04:46.963Z,94972.66
2023-01-26T05:07:14.803Z,94977.47
2023-01-26T05:09:42.833Z,94975.66
2023-01-26T05:12:33.685Z,94981.03
2023-01-26T05:15:23.444Z,94983.97
2023-01-26T05:18:00.718Z,94986.09
2023-01-26T05:20:48.193Z,94987.44
2023-01-26T05:23:17.475Z,94982.81
2023-01-26T05:26:08.196Z,94987.19
2023-01-26T05:28:44.615Z,94984.00
2023-01-26T05:31:11.267Z,94990.38
2023-01-26T05:33:38.066Z,94989.56
2023-01-26T05:36:07.373Z,94984.97
2023-01-26T05:38:34.630Z,94991.19
2023-01-26T05:41:01.269Z,94984.19
2023-01-26T05:43:33.826Z,94990.38
2023-01-26T05:46:16.046Z,94987.91
2023-01-26T05:48:43.732Z,94988.09
2023-01-26T05:51:10.984Z,94991.06
2023-01-26T05:53:38.636Z,94980.66
2023-01-26T05:56:05.631Z,94976.91
2023-01-26T05:58:35.802Z,94986.13
2023-01-26T06:01:04.381Z,94986.13
2023-01-26T06:03:37.070Z,94990.69
2023-01-26T06:06:04.103Z,94999.47
2023-01-26T06:08:39.961Z,94994.47
2023-01-26T06:11:25.336Z,94994.22
2023-01-26T06:14:22.768Z,94994.59
2023-01-26T06:16:49.816Z,94997.19
2023-01-26T06:19:16.529Z,94998.16
2023-01-26T06:21:49.008Z,94997.72
2023-01-26T06:24:15.906Z,94999.53
2023-01-26T06:26:42.550Z,94994.50
2023-01-26T06:29:10.775Z,94994.25
2023-01-26T06:31:39.133Z,94995.78
2023-01-26T06:34:06.145Z,95003.78
2023-01-26T06:36:37.780Z,95004.75
2023-01-26T06:39:05.468Z,94993.41
2023-01-26T06:41:32.934Z,94996.78
2023-01-26T06:43:59.747Z,95002.97
2023-01-26T06:46:26.486Z,95005.22
2023-01-26T06:48:55.957Z,94994.19
2023-01-26T06:51:48.248Z,94994.81
2023-01-26T06:54:15.821Z,94993.66
2023-01-26T06:57:08.784Z,94993.66
2023-01-26T06:59:58.365Z,94995.78
2023-01-26T07:02:43.547Z,94994.56
2023-01-26T07:05:12.826Z,94992.94
2023-01-26T07:07:39.512Z,94991.53
2023-01-26T07:10:07.440Z,94991.34
2023-01-26T07:12:41.915Z,94983.56
2023-01-26T07:15:09.539Z,94991.88
2023-01-26T07:17:36.148Z,94987.69
2023-01-26T07:20:02.963Z,94989.50
2023-01-26T07:22:30.907Z,94988.50
2023-01-26T07:24:57.508Z,94985.91
2023-01-26T07:27:24.156Z,94992.53
2023-01-26T07:29:51.337Z,94995.28
2023-01-26T07:32:18.143Z,94994.13
2023-01-26T07:34:45.345Z,94993.16
2023-01-26T07:37:11.984Z,94991.16
2023-01-26T07:39:39.915Z,94992.56
2023-01-26T07:42:06.578Z,94997.59
2023-01-26T07:44:47.937Z,94988.63
2023-01-26T07:47:14.786Z,94986.28
2023-01-26T07:49:41.482Z,94985.75
2023-01-26T07:52:09.204Z,94981.72
2023-01-26T07:54:35.880Z,94979.25
2023-01-26T07:57:06.912Z,94974.41
2023-01-26T07:59:33.799Z,94970.75
2023-01-26T08:02:00.992Z,94974.72
2023-01-26T08:04:27.657Z,94967.56
2023-01-26T08:06:54.389Z,94986.94
2023-01-26T08:09:21.119Z,94975.41
2023-01-26T08:11:47.751Z,94972.25
2023-01-26T08:14:15.728Z,94968.28
2023-01-26T08:16:42.555Z,94971.34
2023-01-26T08:19:09.312Z,94965.56
2023-01-26T08:21:36.235Z,94963.59
2023-01-26T08:24:03.518Z,94969.41
2023-01-26T08:26:30.206Z,94962.97
2023-01-26T08:28:56.967Z,94966.94
2023-01-26T08:31:25.484Z,94960.31
2023-01-26T08:33:53.279Z,94961.88
2023-01-26T08:36:22.574Z,94966.59
2023-01-26T08:38:49.936Z,94966.19
2023-01-26T08:41:16.626Z,94966.19
2023-01-26T08:43:43.438Z,94966.44
2023-01-26T08:46:10.837Z,94963.66
2023-01-26T08:48:38.934Z,94952.44
2023-01-26T08:51:07.037Z,94960.88
2023-01-26T08:53:35.694Z,94958.28
2023-01-26T08:56:02.431Z,94960.81
2023-01-26T08:58:29.658Z,94956.41
2023-01-26T09:00:56.261Z,94954.63
2023-01-26T09:03:22.942Z,94956.41
2023-01-26T09:05:50.951Z,94957.59
2023-01-26T09:08:17.611Z,94957.59
2023-01-26T09:10:45.165Z,94964.00
2023-01-26T09:13:11.941Z,94958.22
2023-01-26T09:15:38.842Z,94956.78
2023-01-26T09:18:06.029Z,94956.00
2023-01-26T09:20:32.859Z,94954.78
2023-01-26T09:23:00.852Z,94958.81
2023-01-26T09:25:27.509Z,94959.03
2023-01-26T09:27:54.101Z,94958.75
2023-01-26T09:30:21.003Z,94956.97
2023-01-26T09:32:47.680Z,94959.56
2023-01-26T09:35:15.266Z,94958.34
2023-01-26T09:37:43.511Z,94960.94
2023-01-26T09:40:17.758Z,94969.41
2023-01-26T09:42:57.687Z,94973.47
2023-01-26T09:45:29.110Z,94970.31
2023-01-26T09:48:09.756Z,94977.75
2023-01-26T09:50:42.000Z,94973.19
2023-01-26T09:53:14.949Z,94971.00
2023-01-26T09:55:45.175Z,94969.66
2023-01-26T09:58:15.677Z,94969.28
2023-01-26T10:00:47.216Z,94964.06
2023-01-26T10:03:23.538Z,94963.31
2023-01-26T10:05:54.292Z,94970.56
2023-01-26T10:08:40.783Z,94960.56
2023-01-26T10:11:17.034Z,94967.72
2023-01-26T10:13:51.456Z,94963.91
2023-01-26T10:16:18.382Z,94972.25
2023-01-26T10:18:53.956Z,94955.78
2023-01-26T10:21:25.382Z,94954.75
2023-01-26T10:23:52.565Z,94954.31
2023-01-26T10:26:22.297Z,94952.56
2023-01-26T10:28:51.773Z,94952.47
2023-01-26T10:31:21.317Z,94945.09
2023-01-26T10:33:51.787Z,94946.50
2023-01-26T10:36:18.806Z,94943.13
2023-01-26T10:38:47.095Z,94937.94
2023-01-26T10:41:33.453Z,94944.91
2023-01-26T10:44:02.561Z,94944.47
2023-01-26T10:46:33.023Z,94941.88
2023-01-26T10:49:02.260Z,94938.06
2023-01-26T10:51:31.368Z,94937.59
2023-01-26T10:54:28.374Z,94931.63
2023-01-26T10:56:58.697Z,94936.19
2023-01-26T10:59:29.662Z,94938.41
2023-01-26T11:01:59.184Z,94935.47
2023-01-26T11:04:27.349Z,94933.91
2023-01-26T11:06:55.032Z,94939.47
2023-01-26T11:09:26.323Z,94930.06
2023-01-26T11:12:00.693Z,94930.28
2023-01-26T11:14:28.210Z,94934.47
2023-01-26T11:17:04.601Z,94929.50
2023-01-26T11:19:38.450Z,94927.16
2023-01-26T11:22:08.477Z,94922.56
2023-01-26T11:24:45.137Z,94928.34
2023-01-26T11:27:40.194Z,94926.94
2023-01-26T11:30:52.090Z,94923.38
2023-01-26T11:33:29.076Z,94918.97
2023-01-26T11:36:06.130Z,94916.38
2023-01-26T11:38:38.420Z,94917.63
2023-01-26T11:41:20.662Z,94909.00
2023-01-26T11:44:12.041Z,94908.81
2023-01-26T11:46:54.344Z,94904.44
2023-01-26T11:49:34.338Z,94901.09
2023-01-26T11:52:11.085Z,94899.16
2023-01-26T11:54:50.427Z,94894.41
2023-01-26T11:57:27.808Z,94899.03
2023-01-26T12:00:00.646Z,94897.25
2023-01-26T12:02:31.588Z,94893.47
2023-01-26T12:05:03.457Z,94893.06
2023-01-26T12:07:33.372Z,94889.44
2023-01-26T12:10:00.534Z,94893.81
2023-01-26T12:12:38.331Z,94892.22
2023-01-26T12:15:13.757Z,94892.03
2023-01-26T12:17:50.976Z,94891.03
2023-01-26T12:20:28.655Z,94892.28
2023-01-26T12:23:02.195Z,94890.28
2023-01-26T12:25:33.746Z,94881.28
2023-01-26T12:28:11.242Z,94884.13
2023-01-26T12:30:47.702Z,94884.34
2023-01-26T12:33:15.138Z,94878.97
2023-01-26T12:35:59.701Z,94875.56
2023-01-26T12:38:43.174Z,94873.94
2023-01-26T12:41:16.174Z,94876.31
2023-01-26T12:43:57.436Z,94865.91
2023-01-26T12:46:29.178Z,94875.84
2023-01-26T12:49:02.731Z,94867.06
2023-01-26T12:51:34.503Z,94874.91
2023-01-26T12:54:08.004Z,94879.34
2023-01-26T12:56:41.108Z,94870.94
2023-01-26T12:59:39.816Z,94875.16
2023-01-26T13:02:17.853Z,94876.59
2023-01-26T13:04:48.603Z,94873.97
2023-01-26T13:07:34.700Z,94878.38
2023-01-26T13:10:21.558Z,94879.97
2023-01-26T13:12:50.326Z,94870.19
2023-01-26T13:15:18.763Z,94869.19
2023-01-26T13:17:57.804Z,94873.19
2023-01-26T13:20:50.518Z,94871.78
2023-01-26T13:23:52.418Z,94865.56
2023-01-26T13:26:45.958Z,94868.41
2023-01-26T13:29:28.630Z,94861.00
2023-01-26T13:31:56.748Z,94865.38
2023-01-26T13:34:28.101Z,94862.16
2023-01-26T13:37:00.599Z,94863.75
2023-01-26T13:39:31.142Z,94864.16
2023-01-26T13:41:57.837Z,94854.75
2023-01-26T13:44:36.616Z,94865.16
2023-01-26T13:47:10.386Z,94861.53
2023-01-26T13:49:40.463Z,94863.13
2023-01-26T13:52:17.193Z,94860.94
2023-01-26T13:54:44.926Z,94866.75
2023-01-26T13:57:12.172Z,94859.13
2023-01-26T13:59:49.005Z,94860.75
2023-01-26T14:02:23.815Z,94861.16
2023-01-26T14:04:58.046Z,94859.19
2023-01-26T14:07:28.145Z,94858.00
2023-01-26T14:09:59.936Z,94858.78
2023-01-26T14:12:31.687Z,94868.00
2023-01-26T14:15:02.039Z,94859.63
2023-01-26T14:17:30.965Z,94868.63
2023-01-26T14:20:00.638Z,94862.84
2023-01-26T14:22:28.004Z,94868.63
2023-01-26T14:24:55.541Z,94865.63
2023-01-26T14:27:37.933Z,94865.97
2023-01-26T14:30:23.012Z,94865.75
2023-01-26T14:32:56.356Z,94865.34
2023-01-26T14:35:25.185Z,94866.34
2023-01-26T14:38:05.765Z,94861.72
2023-01-26T14:40:32.512Z,94865.34
2023-01-26T14:42:59.480Z,94865.75
2023-01-26T14:45:31.232Z,94856.97
2023-01-26T14:48:01.880Z,94862.34
2023-01-26T14:50:32.367Z,94864.34
2023-01-26T14:53:01.346Z,94861.31
2023-01-26T14:55:29.868Z,94863.31
2023-01-26T14:57:57.572Z,94865.31
2023-01-26T15:00:27.495Z,94858.88
2023-01-26T15:02:54.709Z,94858.28
2023-01-26T15:05:23.267Z,94856.84
2023-01-26T15:07:56.505Z,94856.84
2023-01-26T15:10:37.980Z,94862.84
2023-01-26T15:13:20.055Z,94861.25
2023-01-26T15:15:49.052Z,94862.63
2023-01-26T15:18:20.591Z,94858.63
2023-01-26T15:21:00.243Z,94865.03
2023-01-26T15:23:30.802Z,94863.97
2023-01-26T15:26:05.473Z,94864.34
2023-01-26T15:28:33.014Z,94851.75
2023-01-26T15:30:59.971Z,94861.53
2023-01-26T15:33:47.870Z,94865.91
2023-01-26T15:36:27.447Z,94859.38
2023-01-26T15:39:09.785Z,94863.72
2023-01-26T15:41:36.527Z,94859.06
2023-01-26T15:44:03.378Z,94862.47
2023-01-26T15:46:30.153Z,94867.09
2023-01-26T15:48:57.232Z,94872.13
2023-01-26T15:51:23.940Z,94870.13
2023-01-26T15:53:50.820Z,94879.53
2023-01-26T15:56:18.872Z,94883.50
2023-01-26T15:58:45.542Z,94881.09
2023-01-26T16:01:15.772Z,94880.31
2023-01-26T16:03:42.940Z,94881.91
2023-01-26T16:06:19.751Z,94883.31
2023-01-26T16:08:46.380Z,94878.69
2023-01-26T16:11:14.121Z,94883.09
2023-01-26T16:13:57.323Z,94884.25
2023-01-26T16:16:29.715Z,94880.47
2023-01-26T16:18:56.996Z,94886.91
2023-01-26T16:21:28.746Z,94885.34
2023-01-26T16:23:55.666Z,94891.75
2023-01-26T16:26:22.414Z,94889.41
2023-01-26T16:28:50.423Z,94885.44
2023-01-26T16:31:19.895Z,94884.25
2023-01-26T16:33:47.674Z,94887.81
2023-01-26T16:36:15.503Z,94885.63
2023-01-26T16:38:42.656Z,94893.63
2023-01-26T16:41:15.623Z,94872.81
2023-01-26T16:43:43.183Z,94886.41
2023-01-26T16:46:11.478Z,94885.03
2023-01-26T16:48:40.150Z,94882.69
2023-01-26T16:51:20.011Z,94881.91
2023-01-26T16:53:47.529Z,94872.13
2023-01-26T16:56:15.719Z,94881.34
2023-01-26T16:58:42.401Z,94876.94
2023-01-26T17:01:18.033Z,94884.16
2023-01-26T17:03:45.334Z,94879.13
2023-01-26T17:06:12.594Z,94880.75
2023-01-26T17:08:39.653Z,94876.16
2023-01-26T17:11:06.621Z,94878.75
2023-01-26T17:13:33.270Z,94879.75
2023-01-26T17:16:00.055Z,94879.75
2023-01-26T17:18:28.041Z,94882.19
2023-01-26T17:20:54.762Z,94889.78
2023-01-26T17:23:21.355Z,94888.34
2023-01-26T17:25:48.468Z,94887.56
2023-01-26T17:28:15.178Z,94888.34
2023-01-26T17:30:41.907Z,94889.78
2023-01-26T17:33:08.650Z,94889.38
2023-01-26T17:35:37.474Z,94891.63
2023-01-26T17:38:04.724Z,94880.59
2023-01-26T17:40:31.433Z,94885.81
2023-01-26T17:42:58.226Z,94886.41
2023-01-26T17:45:25.741Z,94881.00
2023-01-26T17:47:54.299Z,94892.03
2023-01-26T17:50:22.059Z,94883.22
2023-01-26T17:52:50.515Z,94881.41
2023-01-26T17:55:17.691Z,94877.84
2023-01-26T17:57:44.786Z,94878.00
2023-01-26T18:00:13.120Z,94883.22
2023-01-26T18:02:39.964Z,94873.81
2023-01-26T18:05:08.812Z,94880.22
2023-01-26T18:07:35.887Z,94879.19
2023-01-26T18:10:05.014Z,94878.56
2023-01-26T18:12:33.235Z,94874.38
2023-01-26T18:15:00.191Z,94868.34
2023-01-26T18:17:26.928Z,94879.56
2023-01-26T18:19:55.190Z,94883.59
2023-01-26T18:22:22.631Z,94880.75
2023-01-26T18:24:49.636Z,94877.94
2023-01-26T18:27:17.723Z,94883.13
2023-01-26T18:29:44.389Z,94887.94
2023-01-26T18:32:11.238Z,94880.75
2023-01-26T18:34:40.852Z,94879.56
2023-01-26T18:37:07.656Z,94884.38
2023-01-26T18:39:34.333Z,94875.56
2023-01-26T18:42:01.023Z,94881.81
2023-01-26T18:44:28.996Z,94876.41
2023-01-26T18:46:55.679Z,94879.19
2023-01-26T18:49:22.409Z,94882.81
2023-01-26T18:51:49.469Z,94880.22
2023-01-26T18:54:17.160Z,94880.22
2023-01-26T18:56:44.334Z,94880.22
2023-01-26T18:59:12.511Z,94879.59
2023-01-26T19:01:40.699Z,94879.81
2023-01-26T19:04:07.439Z,94879.81
2023-01-26T19:06:35.255Z,94886.41
2023-01-26T19:09:05.267Z,94882.81
2023-01-26T19:11:33.449Z,94883.44
2023-01-26T19:14:01.177Z,94875.41
2023-01-26T19:16:28.921Z,94882.03
2023-01-26T19:18:57.368Z,94883.66
2023-01-26T19:21:25.735Z,94888.03
2023-01-26T19:23:54.757Z,94882.03
2023-01-26T19:26:23.483Z,94885.25
2023-01-26T19:28:51.055Z,94880.03
2023-01-26T19:31:19.294Z,94875.84
2023-01-26T19:33:50.236Z,94875.22
2023-01-26T19:36:18.490Z,94871.00
2023-01-26T19:38:46.077Z,94867.81
2023-01-26T19:41:13.149Z,94880.22
2023-01-26T19:43:40.971Z,94871.59
2023-01-26T19:46:09.292Z,94874.00
2023-01-26T19:48:36.188Z,94880.22
2023-01-26T19:51:05.537Z,94879.97
2023-01-26T19:53:35.968Z,94872.56
2023-01-26T19:56:06.246Z,94870.16
2023-01-26T19:58:33.412Z,94878.31
2023-01-26T20:01:01.006Z,94875.50
2023-01-26T20:03:28.360Z,94876.06
2023-01-26T20:05:55.234Z,94879.06
2023-01-26T20:08:21.966Z,94872.22
2023-01-26T20:10:50.269Z,94879.63
2023-01-26T20:13:17.297Z,94872.28
2023-01-26T20:15:44.071Z,94881.28
2023-01-26T20:18:11.207Z,94871.72
2023-01-26T20:20:38.689Z,94870.31
2023-01-26T20:23:07.697Z,94867.53
2023-01-26T20:25:37.181Z,94868.94
2023-01-26T20:28:05.759Z,94869.53
2023-01-26T20:30:33.627Z,94871.16
2023-01-26T20:33:02.334Z,94866.75
2023-01-26T20:35:29.775Z,94867.56
2023-01-26T20:37:57.215Z,94871.78
2023-01-26T20:40:24.367Z,94869.19
2023-01-26T20:42:53.046Z,94875.34
2023-01-26T20:45:22.722Z,94874.38
2023-01-26T20:47:49.791Z,94871.94
2023-01-26T20:50:17.458Z,94869.97
2023-01-26T20:52:44.502Z,94872.13
2023-01-26T20:55:13.171Z,94868.13
2023-01-26T20:57:41.897Z,94860.47
2023-01-26T21:00:10.493Z,94864.88
2023-01-26T21:02:38.699Z,94864.72
2023-01-26T21:05:07.980Z,94858.09
2023-01-26T21:07:34.846Z,94855.50
2023-01-26T21:10:02.261Z,94860.31
2023-01-26T21:12:29.277Z,94854.53
2023-01-26T21:14:56.065Z,94864.13
2023-01-26T21:17:24.359Z,94860.13
2023-01-26T21:19:52.501Z,94862.50
2023-01-26T21:22:21.038Z,94854.66
2023-01-26T21:24:48.004Z,94851.25
2023-01-26T21:27:15.651Z,94865.44
2023-01-26T21:29:42.343Z,94859.50
2023-01-26T21:32:09.059Z,94857.31
2023-01-26T21:34:36.142Z,94857.72
2023-01-26T21:37:06.317Z,94857.13
2023-01-26T21:39:33.077Z,94862.91
2023-01-26T21:42:00.742Z,94867.94
2023-01-26T21:44:29.575Z,94863.13
2023-01-26T21:46:58.210Z,94864.13
2023-01-26T21:49:25.310Z,94857.53
2023-01-26T21:52:11.355Z,94865.69
2023-01-26T21:54:39.474Z,94855.50
2023-01-26T21:57:29.113Z,94850.69
2023-01-26T21:59:56.486Z,94853.50
2023-01-26T22:02:23.476Z,94853.69
2023-01-26T22:04:50.872Z,94851.28
2023-01-26T22:07:17.810Z,94851.66
2023-01-26T22:09:45.861Z,94858.03
2023-01-26T22:12:12.482Z,94860.22
2023-01-26T22:14:39.700Z,94856.41
2023-01-26T22:17:06.324Z,94855.22
2023-01-26T22:19:32.944Z,94852.22
2023-01-26T22:21:59.597Z,94854.47
2023-01-26T22:24:26.324Z,94850.69
2023-01-26T22:26:54.243Z,94857.47
2023-01-26T22:29:20.928Z,94856.06
2023-01-26T22:31:47.673Z,94853.63
2023-01-26T22:34:14.330Z,94848.25
2023-01-26T22:36:41.340Z,94844.22
2023-01-26T22:39:08.536Z,94845.78
2023-01-26T22:41:35.973Z,94853.97
2023-01-26T22:44:04.035Z,94847.09
2023-01-26T22:46:31.599Z,94851.47
2023-01-26T22:48:59.153Z,94850.31
2023-01-26T22:51:28.146Z,94846.31
2023-01-26T22:53:56.261Z,94838.75
2023-01-26T22:56:23.797Z,94834.56
2023-01-26T22:58:58.037Z,94835.13
2023-01-26T23:01:28.163Z,94831.66
2023-01-26T23:03:55.527Z,94834.03
2023-01-26T23:06:22.759Z,94830.81
2023-01-26T23:08:49.710Z,94834.41
2023-01-26T23:11:18.094Z,94834.41
2023-01-26T23:13:46.050Z,94838.81
2023-01-26T23:16:13.297Z,94834.41
2023-01-26T23:18:41.772Z,94831.25
2023-01-26T23:21:09.774Z,94842.69
2023-01-26T23:23:38.501Z,94839.31
2023-01-26T23:26:05.296Z,94836.94
2023-01-26T23:28:34.352Z,94835.97
2023-01-26T23:31:01.288Z,94832.38
2023-01-26T23:33:29.863Z,94834.78
2023-01-26T23:35:58.150Z,94828.41
2023-01-26T23:38:26.686Z,94825.41
2023-01-26T23:40:53.902Z,94825.41
2023-01-26T23:43:21.358Z,94811.19
2023-01-26T23:45:50.131Z,94824.00
2023-01-26T23:48:17.094Z,94824.19
2023-01-26T23:50:43.797Z,94827.41
2023-01-26T23:53:12.335Z,94828.19
2023-01-26T23:55:41.238Z,94831.00
2023-01-26T23:58:07.978Z,94826.78
